sensor_id;sensor_type;location;lat;lon;timestamp;P1;durP1;ratioP1;P2;durP2;ratioP2
66581;SDS011;53438;48.898;2.308;2022-08-19T03:00:30;12.77;;;8.55;;
66581;SDS011;53438;48.898;2.308;2022-08-19T03:02:55;12.17;;;7.97;;
66581;SDS011;53438;48.898;2.308;2022-08-19T03:05:21;11.40;;;8.07;;
66581;SDS011;53438;48.898;2.308;2022-08-19T03:07:46;12.63;;;8.35;;
66581;SDS011;53438;48.898;2.308;2022-08-19T03:10:12;13.87;;;8.10;;
66581;SDS011;53438;48.898;2.308;2022-08-19T03:12:38;11.80;;;8.17;;
66581;SDS011;53438;48.898;2.308;2022-08-19T03:15:05;10.88;;;7.65;;
66581;SDS011;53438;48.898;2.308;2022-08-19T03:17:33;13.43;;;7.38;;
66581;SDS011;53438;48.898;2.308;2022-08-19T03:19:59;14.05;;;7.97;;
66581;SDS011;53438;48.898;2.308;2022-08-19T03:22:24;11.90;;;7.50;;
66581;SDS011;53438;48.898;2.308;2022-08-19T03:24:50;16.60;;;8.37;;
66581;SDS011;53438;48.898;2.308;2022-08-19T03:27:15;14.13;;;8.88;;
66581;SDS011;53438;48.898;2.308;2022-08-19T03:29:42;12.32;;;7.85;;
66581;SDS011;53438;48.898;2.308;2022-08-19T03:32:07;11.85;;;8.15;;
66581;SDS011;53438;48.898;2.308;2022-08-19T03:34:33;13.50;;;8.50;;
66581;SDS011;53438;48.898;2.308;2022-08-19T03:37:03;13.32;;;8.00;;
66581;SDS011;53438;48.898;2.308;2022-08-19T03:39:35;12.90;;;8.00;;
66581;SDS011;53438;48.898;2.308;2022-08-19T03:42:01;12.15;;;7.07;;
66581;SDS011;53438;48.898;2.308;2022-08-19T03:44:27;16.02;;;7.82;;
66581;SDS011;53438;48.898;2.308;2022-08-19T03:46:54;12.80;;;7.05;;
66581;SDS011;53438;48.898;2.308;2022-08-19T03:49:22;9.35;;;6.22;;
66581;SDS011;53438;48.898;2.308;2022-08-19T03:51:49;11.32;;;6.90;;
66581;SDS011;53438;48.898;2.308;2022-08-19T03:54:17;12.98;;;7.10;;
66581;SDS011;53438;48.898;2.308;2022-08-19T03:56:44;12.83;;;6.67;;
66581;SDS011;53438;48.898;2.308;2022-08-19T03:59:13;10.70;;;7.00;;
66581;SDS011;53438;48.898;2.308;2022-08-19T04:01:41;9.70;;;6.25;;
66581;SDS011;53438;48.898;2.308;2022-08-19T04:04:06;10.57;;;6.67;;
66581;SDS011;53438;48.898;2.308;2022-08-19T04:06:32;11.00;;;7.03;;
66581;SDS011;53438;48.898;2.308;2022-08-19T04:09:00;11.70;;;7.25;;
66581;SDS011;53438;48.898;2.308;2022-08-19T04:11:30;12.27;;;6.30;;
66581;SDS011;53438;48.898;2.308;2022-08-19T04:13:58;9.90;;;6.32;;
66581;SDS011;53438;48.898;2.308;2022-08-19T04:16:25;12.65;;;6.10;;
66581;SDS011;53438;48.898;2.308;2022-08-19T04:18:55;10.97;;;5.40;;
66581;SDS011;53438;48.898;2.308;2022-08-19T04:21:23;7.82;;;5.13;;
66581;SDS011;53438;48.898;2.308;2022-08-19T04:23:49;9.68;;;5.78;;
66581;SDS011;53438;48.898;2.308;2022-08-19T04:26:16;8.48;;;5.15;;
66581;SDS011;53438;48.898;2.308;2022-08-19T04:28:43;10.05;;;5.32;;
66581;SDS011;53438;48.898;2.308;2022-08-19T04:31:13;9.52;;;4.97;;
66581;SDS011;53438;48.898;2.308;2022-08-19T04:33:46;9.02;;;4.78;;
66581;SDS011;53438;48.898;2.308;2022-08-19T04:36:20;7.83;;;4.70;;
66581;SDS011;53438;48.898;2.308;2022-08-19T04:38:47;7.78;;;4.90;;
66581;SDS011;53438;48.898;2.308;2022-08-19T04:41:13;9.43;;;4.50;;
66581;SDS011;53438;48.898;2.308;2022-08-19T04:44:17;5.03;;;4.07;;
66581;SDS011;53438;48.898;2.308;2022-08-19T04:46:43;6.28;;;4.30;;
66581;SDS011;53438;48.898;2.308;2022-08-19T04:49:13;8.40;;;4.38;;
66581;SDS011;53438;48.898;2.308;2022-08-19T04:51:41;5.78;;;4.25;;
66581;SDS011;53438;48.898;2.308;2022-08-19T04:54:07;5.85;;;4.25;;
66581;SDS011;53438;48.898;2.308;2022-08-19T04:56:33;7.80;;;4.40;;
66581;SDS011;53438;48.898;2.308;2022-08-19T04:58:59;16.48;;;5.05;;
66581;SDS011;53438;48.898;2.308;2022-08-19T05:01:28;9.00;;;4.68;;
66581;SDS011;53438;48.898;2.308;2022-08-19T05:03:56;5.88;;;3.25;;
66581;SDS011;53438;48.898;2.308;2022-08-19T05:06:23;5.18;;;3.15;;
66581;SDS011;53438;48.898;2.308;2022-08-19T05:08:50;6.22;;;3.63;;
66581;SDS011;53438;48.898;2.308;2022-08-19T05:11:17;5.60;;;3.80;;
66581;SDS011;53438;48.898;2.308;2022-08-19T05:13:49;6.72;;;3.40;;
66581;SDS011;53438;48.898;2.308;2022-08-19T05:16:15;4.95;;;3.50;;
66581;SDS011;53438;48.898;2.308;2022-08-19T05:18:44;6.37;;;3.03;;
66581;SDS011;53438;48.898;2.308;2022-08-19T05:21:29;7.15;;;3.45;;
66581;SDS011;53438;48.898;2.308;2022-08-19T05:24:14;5.78;;;2.90;;
66581;SDS011;53438;48.898;2.308;2022-08-19T05:26:41;5.90;;;2.92;;
66581;SDS011;53438;48.898;2.308;2022-08-19T05:29:11;7.40;;;3.20;;
66581;SDS011;53438;48.898;2.308;2022-08-19T05:31:38;7.88;;;3.72;;
66581;SDS011;53438;48.898;2.308;2022-08-19T05:34:03;6.43;;;3.03;;
66581;SDS011;53438;48.898;2.308;2022-08-19T05:36:33;4.65;;;3.17;;
66581;SDS011;53438;48.898;2.308;2022-08-19T05:39:03;6.07;;;3.40;;
66581;SDS011;53438;48.898;2.308;2022-08-19T05:41:29;5.63;;;3.60;;
66581;SDS011;53438;48.898;2.308;2022-08-19T05:44:00;5.25;;;3.42;;
66581;SDS011;53438;48.898;2.308;2022-08-19T05:46:29;5.95;;;2.80;;
66581;SDS011;53438;48.898;2.308;2022-08-19T05:48:54;5.15;;;3.20;;
66581;SDS011;53438;48.898;2.308;2022-08-19T05:51:21;9.15;;;3.17;;
66581;SDS011;53438;48.898;2.308;2022-08-19T05:53:47;8.25;;;3.53;;
66581;SDS011;53438;48.898;2.308;2022-08-19T05:56:14;6.13;;;2.93;;
66581;SDS011;53438;48.898;2.308;2022-08-19T05:58:41;5.22;;;3.42;;
66581;SDS011;53438;48.898;2.308;2022-08-19T06:01:10;5.68;;;3.05;;
66581;SDS011;53438;48.898;2.308;2022-08-19T06:03:37;6.25;;;3.33;;
66581;SDS011;53438;48.898;2.308;2022-08-19T06:06:04;7.28;;;2.88;;
66581;SDS011;53438;48.898;2.308;2022-08-19T06:08:31;6.60;;;4.00;;
66581;SDS011;53438;48.898;2.308;2022-08-19T06:10:56;4.57;;;3.33;;
66581;SDS011;53438;48.898;2.308;2022-08-19T06:13:22;5.43;;;3.10;;
66581;SDS011;53438;48.898;2.308;2022-08-19T06:15:49;5.82;;;2.75;;
66581;SDS011;53438;48.898;2.308;2022-08-19T06:18:15;7.80;;;3.90;;
66581;SDS011;53438;48.898;2.308;2022-08-19T06:20:41;7.25;;;3.13;;
66581;SDS011;53438;48.898;2.308;2022-08-19T06:23:07;6.73;;;4.00;;
66581;SDS011;53438;48.898;2.308;2022-08-19T06:25:33;8.70;;;4.05;;
66581;SDS011;53438;48.898;2.308;2022-08-19T06:28:00;9.30;;;4.25;;
66581;SDS011;53438;48.898;2.308;2022-08-19T06:30:26;6.65;;;2.90;;
66581;SDS011;53438;48.898;2.308;2022-08-19T06:32:52;4.65;;;3.00;;
66581;SDS011;53438;48.898;2.308;2022-08-19T06:35:18;5.22;;;3.17;;
66581;SDS011;53438;48.898;2.308;2022-08-19T06:37:43;6.20;;;3.80;;
66581;SDS011;53438;48.898;2.308;2022-08-19T06:40:09;6.20;;;2.50;;
66581;SDS011;53438;48.898;2.308;2022-08-19T06:42:36;3.65;;;2.47;;
66581;SDS011;53438;48.898;2.308;2022-08-19T06:45:03;9.17;;;3.13;;
66581;SDS011;53438;48.898;2.308;2022-08-19T06:47:29;6.05;;;2.70;;
66581;SDS011;53438;48.898;2.308;2022-08-19T06:49:56;11.73;;;2.83;;
66581;SDS011;53438;48.898;2.308;2022-08-19T06:52:27;6.45;;;2.63;;
66581;SDS011;53438;48.898;2.308;2022-08-19T06:54:53;10.68;;;2.67;;
66581;SDS011;53438;48.898;2.308;2022-08-19T06:57:20;5.73;;;2.67;;
66581;SDS011;53438;48.898;2.308;2022-08-19T06:59:46;5.38;;;2.67;;
66581;SDS011;53438;48.898;2.308;2022-08-19T07:02:12;5.03;;;2.70;;
66581;SDS011;53438;48.898;2.308;2022-08-19T07:04:37;5.97;;;2.40;;
66581;SDS011;53438;48.898;2.308;2022-08-19T07:07:07;5.00;;;2.65;;
66581;SDS011;53438;48.898;2.308;2022-08-19T07:09:38;3.30;;;2.58;;
66581;SDS011;53438;48.898;2.308;2022-08-19T07:12:06;4.40;;;2.00;;
66581;SDS011;53438;48.898;2.308;2022-08-19T07:14:34;4.18;;;2.50;;
66581;SDS011;53438;48.898;2.308;2022-08-19T07:17:02;3.47;;;2.58;;
66581;SDS011;53438;48.898;2.308;2022-08-19T07:19:28;3.95;;;2.10;;
66581;SDS011;53438;48.898;2.308;2022-08-19T07:21:54;8.73;;;2.72;;
66581;SDS011;53438;48.898;2.308;2022-08-19T07:24:21;4.05;;;2.20;;
66581;SDS011;53438;48.898;2.308;2022-08-19T07:26:49;4.95;;;2.08;;
66581;SDS011;53438;48.898;2.308;2022-08-19T07:29:16;4.32;;;2.00;;
66581;SDS011;53438;48.898;2.308;2022-08-19T07:31:42;5.25;;;1.65;;
66581;SDS011;53438;48.898;2.308;2022-08-19T07:34:08;9.18;;;2.45;;
66581;SDS011;53438;48.898;2.308;2022-08-19T07:36:37;9.38;;;3.42;;
66581;SDS011;53438;48.898;2.308;2022-08-19T07:39:05;8.85;;;2.63;;
66581;SDS011;53438;48.898;2.308;2022-08-19T07:41:33;8.35;;;1.55;;
66581;SDS011;53438;48.898;2.308;2022-08-19T07:44:00;11.13;;;2.80;;
66581;SDS011;53438;48.898;2.308;2022-08-19T07:46:31;10.52;;;1.90;;
66581;SDS011;53438;48.898;2.308;2022-08-19T07:48:58;4.93;;;1.73;;
66581;SDS011;53438;48.898;2.308;2022-08-19T07:51:23;18.77;;;3.40;;
66581;SDS011;53438;48.898;2.308;2022-08-19T07:53:49;13.50;;;2.30;;
66581;SDS011;53438;48.898;2.308;2022-08-19T07:56:16;8.45;;;2.40;;
66581;SDS011;53438;48.898;2.308;2022-08-19T07:58:44;8.40;;;3.13;;
66581;SDS011;53438;48.898;2.308;2022-08-19T08:01:12;5.18;;;2.05;;
66581;SDS011;53438;48.898;2.308;2022-08-19T08:03:41;7.80;;;2.00;;
66581;SDS011;53438;48.898;2.308;2022-08-19T08:06:26;3.05;;;1.55;;
66581;SDS011;53438;48.898;2.308;2022-08-19T08:09:10;3.97;;;1.58;;
66581;SDS011;53438;48.898;2.308;2022-08-19T08:11:40;5.82;;;1.70;;
66581;SDS011;53438;48.898;2.308;2022-08-19T08:14:08;6.65;;;1.70;;
66581;SDS011;53438;48.898;2.308;2022-08-19T08:16:35;6.80;;;2.10;;
66581;SDS011;53438;48.898;2.308;2022-08-19T08:19:03;5.32;;;2.05;;
66581;SDS011;53438;48.898;2.308;2022-08-19T08:21:30;4.10;;;1.58;;
66581;SDS011;53438;48.898;2.308;2022-08-19T08:23:55;19.30;;;3.23;;
66581;SDS011;53438;48.898;2.308;2022-08-19T08:26:21;9.07;;;2.40;;
66581;SDS011;53438;48.898;2.308;2022-08-19T08:28:47;16.58;;;4.35;;
66581;SDS011;53438;48.898;2.308;2022-08-19T08:31:13;6.88;;;2.20;;
66581;SDS011;53438;48.898;2.308;2022-08-19T08:33:39;3.95;;;1.85;;
66581;SDS011;53438;48.898;2.308;2022-08-19T08:36:07;4.40;;;0.95;;
66581;SDS011;53438;48.898;2.308;2022-08-19T08:38:34;4.88;;;1.20;;
66581;SDS011;53438;48.898;2.308;2022-08-19T08:41:01;3.00;;;1.38;;
66581;SDS011;53438;48.898;2.308;2022-08-19T08:43:54;3.88;;;1.20;;
66581;SDS011;53438;48.898;2.308;2022-08-19T08:51:43;3.67;;;1.20;;
66581;SDS011;53438;48.898;2.308;2022-08-19T08:54:13;3.97;;;1.15;;
66581;SDS011;53438;48.898;2.308;2022-08-19T08:56:42;2.87;;;1.30;;
66581;SDS011;53438;48.898;2.308;2022-08-19T08:59:12;5.53;;;2.33;;
66581;SDS011;53438;48.898;2.308;2022-08-19T09:01:42;4.10;;;1.83;;
66581;SDS011;53438;48.898;2.308;2022-08-19T09:04:09;6.63;;;1.90;;
66581;SDS011;53438;48.898;2.308;2022-08-19T09:09:29;5.10;;;1.65;;
66581;SDS011;53438;48.898;2.308;2022-08-19T09:17:14;6.53;;;1.52;;
66581;SDS011;53438;48.898;2.308;2022-08-19T09:19:57;5.30;;;1.48;;
66581;SDS011;53438;48.898;2.308;2022-08-19T09:22:31;3.60;;;1.55;;
66581;SDS011;53438;48.898;2.308;2022-08-19T09:24:58;5.50;;;1.67;;
66581;SDS011;53438;48.898;2.308;2022-08-19T09:27:24;4.35;;;1.58;;
66581;SDS011;53438;48.898;2.308;2022-08-19T09:29:51;4.03;;;1.30;;
66581;SDS011;53438;48.898;2.308;2022-08-19T09:32:18;3.85;;;1.20;;
66581;SDS011;53438;48.898;2.308;2022-08-19T09:34:44;3.80;;;1.48;;
66581;SDS011;53438;48.898;2.308;2022-08-19T09:37:11;4.97;;;2.10;;
66581;SDS011;53438;48.898;2.308;2022-08-19T09:39:38;3.25;;;1.40;;
66581;SDS011;53438;48.898;2.308;2022-08-19T09:42:05;6.25;;;1.90;;
66581;SDS011;53438;48.898;2.308;2022-08-19T09:44:36;2.22;;;1.40;;
66581;SDS011;53438;48.898;2.308;2022-08-19T09:47:02;4.70;;;1.70;;
66581;SDS011;53438;48.898;2.308;2022-08-19T09:49:29;3.43;;;1.33;;
66581;SDS011;53438;48.898;2.308;2022-08-19T09:51:54;3.00;;;1.30;;
66581;SDS011;53438;48.898;2.308;2022-08-19T09:54:20;2.03;;;1.00;;
66581;SDS011;53438;48.898;2.308;2022-08-19T09:56:46;5.57;;;1.50;;
66581;SDS011;53438;48.898;2.308;2022-08-19T09:59:11;5.70;;;1.40;;
66581;SDS011;53438;48.898;2.308;2022-08-19T10:01:37;2.17;;;1.40;;
66581;SDS011;53438;48.898;2.308;2022-08-19T10:04:02;2.53;;;1.20;;
66581;SDS011;53438;48.898;2.308;2022-08-19T10:06:33;3.88;;;1.38;;
66581;SDS011;53438;48.898;2.308;2022-08-19T10:08:59;2.80;;;1.17;;
66581;SDS011;53438;48.898;2.308;2022-08-19T10:11:27;5.22;;;1.48;;
66581;SDS011;53438;48.898;2.308;2022-08-19T10:13:53;1.58;;;1.08;;
66581;SDS011;53438;48.898;2.308;2022-08-19T10:16:20;2.87;;;1.20;;
66581;SDS011;53438;48.898;2.308;2022-08-19T10:18:47;3.35;;;1.10;;
66581;SDS011;53438;48.898;2.308;2022-08-19T10:21:15;4.35;;;1.33;;
66581;SDS011;53438;48.898;2.308;2022-08-19T10:23:43;2.72;;;1.30;;
66581;SDS011;53438;48.898;2.308;2022-08-19T10:26:11;3.38;;;1.20;;
66581;SDS011;53438;48.898;2.308;2022-08-19T10:28:39;2.72;;;1.40;;
66581;SDS011;53438;48.898;2.308;2022-08-19T10:31:08;4.05;;;1.40;;
66581;SDS011;53438;48.898;2.308;2022-08-19T10:33:36;2.13;;;0.90;;
66581;SDS011;53438;48.898;2.308;2022-08-19T10:36:03;5.53;;;1.45;;
66581;SDS011;53438;48.898;2.308;2022-08-19T10:38:34;2.85;;;1.30;;
66581;SDS011;53438;48.898;2.308;2022-08-19T10:41:07;2.85;;;1.20;;
66581;SDS011;53438;48.898;2.308;2022-08-19T10:43:34;3.80;;;1.20;;
66581;SDS011;53438;48.898;2.308;2022-08-19T10:46:03;4.00;;;1.63;;
66581;SDS011;53438;48.898;2.308;2022-08-19T10:48:30;2.92;;;1.40;;
66581;SDS011;53438;48.898;2.308;2022-08-19T10:50:56;2.07;;;1.30;;
66581;SDS011;53438;48.898;2.308;2022-08-19T10:53:41;3.00;;;1.25;;
66581;SDS011;53438;48.898;2.308;2022-08-19T10:56:06;2.47;;;1.17;;
66581;SDS011;53438;48.898;2.308;2022-08-19T10:58:50;4.85;;;1.55;;
66581;SDS011;53438;48.898;2.308;2022-08-19T11:01:15;3.27;;;1.23;;
66581;SDS011;53438;48.898;2.308;2022-08-19T11:03:41;1.57;;;1.00;;
66581;SDS011;53438;48.898;2.308;2022-08-19T11:06:08;3.92;;;1.15;;
66581;SDS011;53438;48.898;2.308;2022-08-19T11:08:34;3.22;;;1.00;;
66581;SDS011;53438;48.898;2.308;2022-08-19T11:11:02;3.07;;;1.70;;
66581;SDS011;53438;48.898;2.308;2022-08-19T11:13:29;3.60;;;1.42;;
66581;SDS011;53438;48.898;2.308;2022-08-19T11:15:56;2.40;;;1.20;;
66581;SDS011;53438;48.898;2.308;2022-08-19T11:18:32;4.32;;;1.48;;
66581;SDS011;53438;48.898;2.308;2022-08-19T11:23:49;3.53;;;1.93;;
66581;SDS011;53438;48.898;2.308;2022-08-19T11:26:17;7.05;;;3.35;;
66581;SDS011;53438;48.898;2.308;2022-08-19T11:28:43;3.38;;;1.95;;
66581;SDS011;53438;48.898;2.308;2022-08-19T11:31:12;2.73;;;1.57;;
66581;SDS011;53438;48.898;2.308;2022-08-19T11:33:39;3.90;;;1.30;;
66581;SDS011;53438;48.898;2.308;2022-08-19T11:36:05;4.07;;;1.43;;
66581;SDS011;53438;48.898;2.308;2022-08-19T11:38:30;2.58;;;1.30;;
66581;SDS011;53438;48.898;2.308;2022-08-19T11:40:57;5.27;;;1.37;;
66581;SDS011;53438;48.898;2.308;2022-08-19T11:43:24;3.22;;;1.50;;
66581;SDS011;53438;48.898;2.308;2022-08-19T11:45:51;9.70;;;5.90;;
66581;SDS011;53438;48.898;2.308;2022-08-19T11:48:17;3.03;;;1.43;;
66581;SDS011;53438;48.898;2.308;2022-08-19T11:50:46;4.30;;;1.40;;
66581;SDS011;53438;48.898;2.308;2022-08-19T11:53:12;3.90;;;1.92;;
66581;SDS011;53438;48.898;2.308;2022-08-19T11:55:38;2.93;;;1.83;;
66581;SDS011;53438;48.898;2.308;2022-08-19T11:58:07;4.17;;;1.80;;
66581;SDS011;53438;48.898;2.308;2022-08-19T12:00:34;8.02;;;4.72;;
66581;SDS011;53438;48.898;2.308;2022-08-19T12:03:01;6.45;;;3.10;;
66581;SDS011;53438;48.898;2.308;2022-08-19T12:05:27;3.90;;;1.93;;
66581;SDS011;53438;48.898;2.308;2022-08-19T12:07:52;4.57;;;1.90;;
66581;SDS011;53438;48.898;2.308;2022-08-19T12:10:19;3.08;;;1.77;;
66581;SDS011;53438;48.898;2.308;2022-08-19T12:12:44;2.97;;;1.80;;
66581;SDS011;53438;48.898;2.308;2022-08-19T12:15:10;4.65;;;1.95;;
66581;SDS011;53438;48.898;2.308;2022-08-19T12:17:36;5.60;;;2.10;;
66581;SDS011;53438;48.898;2.308;2022-08-19T12:20:03;5.07;;;1.90;;
66581;SDS011;53438;48.898;2.308;2022-08-19T12:22:29;3.95;;;1.70;;
66581;SDS011;53438;48.898;2.308;2022-08-19T12:24:55;4.30;;;1.80;;
66581;SDS011;53438;48.898;2.308;2022-08-19T12:27:20;4.93;;;1.50;;
66581;SDS011;53438;48.898;2.308;2022-08-19T12:29:46;3.15;;;1.70;;
66581;SDS011;53438;48.898;2.308;2022-08-19T12:32:11;5.00;;;1.53;;
66581;SDS011;53438;48.898;2.308;2022-08-19T12:34:36;4.63;;;1.73;;
66581;SDS011;53438;48.898;2.308;2022-08-19T12:37:03;5.72;;;1.52;;
66581;SDS011;53438;48.898;2.308;2022-08-19T12:39:40;5.35;;;1.90;;
66581;SDS011;53438;48.898;2.308;2022-08-19T12:42:07;2.77;;;1.60;;
66581;SDS011;53438;48.898;2.308;2022-08-19T12:44:34;4.00;;;1.50;;
66581;SDS011;53438;48.898;2.308;2022-08-19T12:47:00;2.70;;;1.20;;
66581;SDS011;53438;48.898;2.308;2022-08-19T12:49:28;3.70;;;1.25;;
66581;SDS011;53438;48.898;2.308;2022-08-19T12:51:54;3.60;;;1.52;;
66581;SDS011;53438;48.898;2.308;2022-08-19T12:54:19;5.77;;;1.30;;
66581;SDS011;53438;48.898;2.308;2022-08-19T12:56:45;4.43;;;1.30;;
66581;SDS011;53438;48.898;2.308;2022-08-19T12:59:10;6.10;;;1.47;;
66581;SDS011;53438;48.898;2.308;2022-08-19T13:01:36;4.67;;;1.43;;
66581;SDS011;53438;48.898;2.308;2022-08-19T13:04:01;3.33;;;1.30;;
66581;SDS011;53438;48.898;2.308;2022-08-19T13:06:27;3.73;;;1.80;;
66581;SDS011;53438;48.898;2.308;2022-08-19T13:08:53;5.87;;;1.60;;
66581;SDS011;53438;48.898;2.308;2022-08-19T13:11:20;5.40;;;1.33;;
66581;SDS011;53438;48.898;2.308;2022-08-19T13:13:46;2.92;;;1.40;;
66581;SDS011;53438;48.898;2.308;2022-08-19T13:16:15;4.85;;;1.60;;
66581;SDS011;53438;48.898;2.308;2022-08-19T13:18:41;3.13;;;1.47;;
66581;SDS011;53438;48.898;2.308;2022-08-19T13:21:09;4.15;;;1.92;;
66581;SDS011;53438;48.898;2.308;2022-08-19T13:23:37;3.50;;;1.30;;
66581;SDS011;53438;48.898;2.308;2022-08-19T13:26:05;3.25;;;1.48;;
66581;SDS011;53438;48.898;2.308;2022-08-19T13:28:31;3.00;;;1.30;;
66581;SDS011;53438;48.898;2.308;2022-08-19T13:31:16;5.25;;;1.75;;
66581;SDS011;53438;48.898;2.308;2022-08-19T13:34:01;5.88;;;1.60;;
66581;SDS011;53438;48.898;2.308;2022-08-19T13:36:27;3.83;;;1.70;;
66581;SDS011;53438;48.898;2.308;2022-08-19T13:38:52;4.70;;;1.77;;
66581;SDS011;53438;48.898;2.308;2022-08-19T13:41:17;4.73;;;1.53;;
66581;SDS011;53438;48.898;2.308;2022-08-19T13:43:44;5.50;;;1.40;;
66581;SDS011;53438;48.898;2.308;2022-08-19T13:46:10;5.15;;;1.10;;
66581;SDS011;53438;48.898;2.308;2022-08-19T13:48:39;4.40;;;1.40;;
66581;SDS011;53438;48.898;2.308;2022-08-19T13:51:06;2.78;;;1.02;;
66581;SDS011;53438;48.898;2.308;2022-08-19T13:53:34;2.63;;;1.23;;
66581;SDS011;53438;48.898;2.308;2022-08-19T13:56:04;1.90;;;0.98;;
66581;SDS011;53438;48.898;2.308;2022-08-19T13:58:31;4.63;;;1.02;;
66581;SDS011;53438;48.898;2.308;2022-08-19T14:00:57;5.67;;;1.67;;
66581;SDS011;53438;48.898;2.308;2022-08-19T14:03:24;3.28;;;1.00;;
66581;SDS011;53438;48.898;2.308;2022-08-19T14:05:49;1.30;;;0.88;;
66581;SDS011;53438;48.898;2.308;2022-08-19T14:08:15;2.50;;;0.80;;
66581;SDS011;53438;48.898;2.308;2022-08-19T14:10:40;3.17;;;1.20;;
66581;SDS011;53438;48.898;2.308;2022-08-19T14:13:08;9.18;;;3.65;;
66581;SDS011;53438;48.898;2.308;2022-08-19T14:15:34;5.97;;;2.65;;
66581;SDS011;53438;48.898;2.308;2022-08-19T14:18:03;2.27;;;1.40;;
66581;SDS011;53438;48.898;2.308;2022-08-19T14:20:28;3.92;;;1.67;;
66581;SDS011;53438;48.898;2.308;2022-08-19T14:22:54;1.43;;;1.10;;
66581;SDS011;53438;48.898;2.308;2022-08-19T14:25:21;3.93;;;1.50;;
66581;SDS011;53438;48.898;2.308;2022-08-19T14:27:52;4.90;;;1.55;;
66581;SDS011;53438;48.898;2.308;2022-08-19T14:30:19;2.47;;;0.90;;
66581;SDS011;53438;48.898;2.308;2022-08-19T14:32:46;4.22;;;0.90;;
66581;SDS011;53438;48.898;2.308;2022-08-19T14:35:13;2.57;;;1.00;;
66581;SDS011;53438;48.898;2.308;2022-08-19T14:37:40;2.78;;;1.27;;
66581;SDS011;53438;48.898;2.308;2022-08-19T14:40:06;3.05;;;1.10;;
66581;SDS011;53438;48.898;2.308;2022-08-19T14:42:33;1.37;;;0.87;;
66581;SDS011;53438;48.898;2.308;2022-08-19T14:44:58;2.63;;;1.35;;
66581;SDS011;53438;48.898;2.308;2022-08-19T14:47:24;2.80;;;1.13;;
66581;SDS011;53438;48.898;2.308;2022-08-19T14:49:51;1.95;;;1.08;;
66581;SDS011;53438;48.898;2.308;2022-08-19T14:52:17;3.73;;;1.10;;
66581;SDS011;53438;48.898;2.308;2022-08-19T14:54:43;2.93;;;1.20;;
66581;SDS011;53438;48.898;2.308;2022-08-19T14:57:11;1.87;;;1.27;;
66581;SDS011;53438;48.898;2.308;2022-08-19T14:59:37;1.97;;;0.80;;
66581;SDS011;53438;48.898;2.308;2022-08-19T15:02:02;1.48;;;0.80;;
66581;SDS011;53438;48.898;2.308;2022-08-19T15:04:28;1.80;;;1.20;;
66581;SDS011;53438;48.898;2.308;2022-08-19T15:06:53;2.43;;;0.70;;
66581;SDS011;53438;48.898;2.308;2022-08-19T15:09:18;1.83;;;0.83;;
66581;SDS011;53438;48.898;2.308;2022-08-19T15:11:44;2.20;;;0.83;;
66581;SDS011;53438;48.898;2.308;2022-08-19T15:14:11;2.45;;;0.80;;
66581;SDS011;53438;48.898;2.308;2022-08-19T15:16:36;2.07;;;0.70;;
66581;SDS011;53438;48.898;2.308;2022-08-19T15:19:04;2.22;;;0.90;;
66581;SDS011;53438;48.898;2.308;2022-08-19T15:21:29;3.10;;;0.90;;
66581;SDS011;53438;48.898;2.308;2022-08-19T15:23:55;3.23;;;0.80;;
66581;SDS011;53438;48.898;2.308;2022-08-19T15:26:22;3.90;;;0.80;;
66581;SDS011;53438;48.898;2.308;2022-08-19T15:28:47;2.70;;;0.80;;
66581;SDS011;53438;48.898;2.308;2022-08-19T15:31:15;2.38;;;1.20;;
66581;SDS011;53438;48.898;2.308;2022-08-19T15:33:44;1.80;;;0.87;;
66581;SDS011;53438;48.898;2.308;2022-08-19T15:36:11;2.25;;;1.27;;
66581;SDS011;53438;48.898;2.308;2022-08-19T15:38:37;3.00;;;0.80;;
66581;SDS011;53438;48.898;2.308;2022-08-19T15:41:04;2.75;;;1.20;;
66581;SDS011;53438;48.898;2.308;2022-08-19T15:43:52;1.83;;;0.90;;
66581;SDS011;53438;48.898;2.308;2022-08-19T15:46:33;3.08;;;0.90;;
66581;SDS011;53438;48.898;2.308;2022-08-19T15:48:59;2.85;;;1.02;;
66581;SDS011;53438;48.898;2.308;2022-08-19T15:51:25;2.38;;;1.55;;
66581;SDS011;53438;48.898;2.308;2022-08-19T15:53:55;3.33;;;0.70;;
66581;SDS011;53438;48.898;2.308;2022-08-19T15:56:21;2.42;;;1.25;;
66581;SDS011;53438;48.898;2.308;2022-08-19T15:58:46;3.57;;;1.60;;
66581;SDS011;53438;48.898;2.308;2022-08-19T16:01:30;2.10;;;1.20;;
66581;SDS011;53438;48.898;2.308;2022-08-19T16:04:14;2.67;;;0.95;;
66581;SDS011;53438;48.898;2.308;2022-08-19T16:06:59;2.95;;;1.00;;
66581;SDS011;53438;48.898;2.308;2022-08-19T16:09:27;3.13;;;1.60;;
66581;SDS011;53438;48.898;2.308;2022-08-19T16:11:58;3.57;;;1.40;;
66581;SDS011;53438;48.898;2.308;2022-08-19T16:14:28;2.20;;;1.00;;
66581;SDS011;53438;48.898;2.308;2022-08-19T16:16:55;2.28;;;1.00;;
66581;SDS011;53438;48.898;2.308;2022-08-19T16:19:21;1.63;;;0.93;;
66581;SDS011;53438;48.898;2.308;2022-08-19T16:21:48;2.20;;;0.80;;
66581;SDS011;53438;48.898;2.308;2022-08-19T16:24:17;3.95;;;0.93;;
66581;SDS011;53438;48.898;2.308;2022-08-19T16:26:44;2.72;;;0.90;;
66581;SDS011;53438;48.898;2.308;2022-08-19T16:29:09;3.80;;;1.20;;
66581;SDS011;53438;48.898;2.308;2022-08-19T16:31:36;7.80;;;1.77;;
66581;SDS011;53438;48.898;2.308;2022-08-19T16:34:02;1.60;;;0.98;;
66581;SDS011;53438;48.898;2.308;2022-08-19T16:36:28;2.75;;;0.80;;
66581;SDS011;53438;48.898;2.308;2022-08-19T16:38:55;2.42;;;0.88;;
66581;SDS011;53438;48.898;2.308;2022-08-19T16:41:21;2.10;;;1.07;;
66581;SDS011;53438;48.898;2.308;2022-08-19T16:43:47;2.20;;;1.05;;
66581;SDS011;53438;48.898;2.308;2022-08-19T16:46:16;2.00;;;1.10;;
66581;SDS011;53438;48.898;2.308;2022-08-19T16:48:42;1.40;;;0.85;;
66581;SDS011;53438;48.898;2.308;2022-08-19T16:51:10;2.42;;;0.90;;
66581;SDS011;53438;48.898;2.308;2022-08-19T16:53:37;0.90;;;0.55;;
66581;SDS011;53438;48.898;2.308;2022-08-19T16:56:04;2.45;;;1.60;;
66581;SDS011;53438;48.898;2.308;2022-08-19T16:58:30;3.17;;;1.70;;
66581;SDS011;53438;48.898;2.308;2022-08-19T17:00:58;1.50;;;0.70;;
66581;SDS011;53438;48.898;2.308;2022-08-19T17:03:26;3.42;;;1.83;;
66581;SDS011;53438;48.898;2.308;2022-08-19T17:05:53;3.78;;;2.00;;
66581;SDS011;53438;48.898;2.308;2022-08-19T17:08:20;3.00;;;0.80;;
66581;SDS011;53438;48.898;2.308;2022-08-19T17:10:50;8.68;;;3.15;;
66581;SDS011;53438;48.898;2.308;2022-08-19T17:13:18;3.80;;;2.22;;
66581;SDS011;53438;48.898;2.308;2022-08-19T17:15:44;7.47;;;2.50;;
66581;SDS011;53438;48.898;2.308;2022-08-19T17:18:10;6.80;;;1.95;;
66581;SDS011;53438;48.898;2.308;2022-08-19T17:20:36;3.27;;;2.10;;
66581;SDS011;53438;48.898;2.308;2022-08-19T17:23:02;5.82;;;1.88;;
66581;SDS011;53438;48.898;2.308;2022-08-19T17:25:29;4.07;;;1.23;;
66581;SDS011;53438;48.898;2.308;2022-08-19T17:27:56;4.22;;;1.50;;
66581;SDS011;53438;48.898;2.308;2022-08-19T17:30:22;3.57;;;1.37;;
66581;SDS011;53438;48.898;2.308;2022-08-19T17:32:50;3.97;;;1.50;;
66581;SDS011;53438;48.898;2.308;2022-08-19T17:35:15;3.80;;;1.23;;
66581;SDS011;53438;48.898;2.308;2022-08-19T17:37:47;2.60;;;1.30;;
66581;SDS011;53438;48.898;2.308;2022-08-19T17:40:15;7.90;;;2.72;;
66581;SDS011;53438;48.898;2.308;2022-08-19T17:42:42;4.00;;;1.17;;
66581;SDS011;53438;48.898;2.308;2022-08-19T17:45:08;4.72;;;1.40;;
66581;SDS011;53438;48.898;2.308;2022-08-19T17:47:35;4.35;;;0.80;;
66581;SDS011;53438;48.898;2.308;2022-08-19T17:50:05;2.67;;;1.60;;
66581;SDS011;53438;48.898;2.308;2022-08-19T17:52:32;5.15;;;2.95;;
66581;SDS011;53438;48.898;2.308;2022-08-19T17:54:58;1.93;;;0.70;;
66581;SDS011;53438;48.898;2.308;2022-08-19T17:57:23;2.67;;;1.20;;
66581;SDS011;53438;48.898;2.308;2022-08-19T17:59:49;3.37;;;1.77;;
66581;SDS011;53438;48.898;2.308;2022-08-19T18:02:15;5.07;;;1.88;;
66581;SDS011;53438;48.898;2.308;2022-08-19T18:04:41;3.83;;;1.55;;